Time,TemperatureF,DewpointF,PressureIn,WindDirection,WindDirectionDegrees,WindSpeedMPH,WindSpeedGustMPH,Humidity,HourlyPrecipIn,Conditions,Clouds,dailyrainin,SolarRadiationWatts/m^2,SoftwareType,DateUTC
2013-10-07 02:00:00,52.0,29.0,30.00,West,266,1.0,-999.0,41,0.00,,,-99.99,-1.400000,,2013-10-07 09:00:00,
2013-10-07 02:43:00,52.0,29.0,30.00,West,266,1.0,-999.0,41,0.00,,,-99.99,-1.400000,,2013-10-07 09:43:00,
2013-10-07 02:53:00,52.0,29.0,30.00,West,266,1.0,-999.0,41,0.00,,,-99.99,-1.400000,,2013-10-07 09:53:00,
2013-10-07 03:00:00,57.0,25.0,29.99,NNE,21,2.0,-999.0,28,0.00,,,-99.99,-0.800000,,2013-10-07 10:00:00,
2013-10-07 03:43:00,57.0,25.0,29.99,NNE,21,2.0,-999.0,28,0.00,,,-99.99,-0.800000,,2013-10-07 10:43:00,
2013-10-07 03:53:00,57.0,25.0,29.99,NNE,21,2.0,-999.0,28,0.00,,,-99.99,-0.800000,,2013-10-07 10:53:00,
2013-10-07 04:00:00,55.0,25.0,29.98,NW,319,2.0,-999.0,30,0.00,,,-99.99,-2.400000,,2013-10-07 11:00:00,
2013-10-07 04:42:00,55.0,25.0,29.98,NW,319,2.0,-999.0,30,0.00,,,-99.99,-2.400000,,2013-10-07 11:42:00,
2013-10-07 04:52:00,55.0,25.0,29.98,NW,319,2.0,-999.0,30,0.00,,,-99.99,-2.400000,,2013-10-07 11:52:00,
2013-10-07 05:00:00,55.0,24.0,29.97,North,356,2.0,-999.0,29,0.00,,,-99.99,-2.600000,,2013-10-07 12:00:00,
2013-10-07 05:43:00,55.0,24.0,29.97,North,356,2.0,-999.0,29,0.00,,,-99.99,-2.600000,,2013-10-07 12:43:00,
2013-10-07 05:52:00,55.0,24.0,29.97,North,356,2.0,-999.0,29,0.00,,,-99.99,-2.600000,,2013-10-07 12:52:00,
2013-10-07 06:00:00,54.0,24.0,29.97,NW,315,2.0,-999.0,31,0.00,,,-99.99,-3.100000,,2013-10-07 13:00:00,
2013-10-07 06:42:00,54.0,24.0,29.97,NW,315,2.0,-999.0,31,0.00,,,-99.99,-3.100000,,2013-10-07 13:42:00,
2013-10-07 06:52:00,54.0,24.0,29.97,NW,315,2.0,-999.0,31,0.00,,,-99.99,-3.100000,,2013-10-07 13:52:00,
2013-10-07 07:00:00,54.0,23.0,29.97,North,355,1.0,-999.0,29,0.00,,,-99.99,-2.600000,,2013-10-07 14:00:00,
2013-10-07 07:42:00,54.0,23.0,29.97,North,355,1.0,-999.0,29,0.00,,,-99.99,-2.600000,,2013-10-07 14:42:00,
2013-10-07 07:52:00,54.0,23.0,29.97,North,355,1.0,-999.0,29,0.00,,,-99.99,-2.600000,,2013-10-07 14:52:00,
2013-10-07 08:00:00,54.0,23.0,29.97,North,3,4.0,-999.0,29,0.00,,,-99.99,10.200000,,2013-10-07 15:00:00,
2013-10-07 08:43:00,54.0,23.0,29.97,North,3,4.0,-999.0,29,0.00,,,-99.99,10.200000,,2013-10-07 15:43:00,
2013-10-07 08:53:00,54.0,23.0,29.97,North,3,4.0,-999.0,29,0.00,,,-99.99,10.200000,,2013-10-07 15:53:00,
2013-10-07 09:00:00,59.0,24.0,29.98,NNE,19,5.0,-999.0,26,0.00,,,-99.99,34.700001,,2013-10-07 16:00:00,
2013-10-07 09:43:00,59.0,24.0,29.98,NNE,19,5.0,-999.0,26,0.00,,,-99.99,34.700001,,2013-10-07 16:43:00,
2013-10-07 09:53:00,59.0,24.0,29.98,NNE,19,5.0,-999.0,26,0.00,,,-99.99,34.700001,,2013-10-07 16:53:00,
2013-10-07 10:00:00,67.0,26.0,29.99,NNE,14,4.0,-999.0,22,0.00,,,-99.99,392.700012,,2013-10-07 17:00:00,
2013-10-07 10:42:00,67.0,26.0,29.99,NNE,14,4.0,-999.0,22,0.00,,,-99.99,392.700012,,2013-10-07 17:42:00,
2013-10-07 10:52:00,67.0,26.0,29.99,NNE,14,4.0,-999.0,22,0.00,,,-99.99,392.700012,,2013-10-07 17:52:00,
2013-10-07 11:00:00,77.0,23.0,29.99,SE,131,1.0,-999.0,13,0.00,,,-99.99,567.599976,,2013-10-07 18:00:00,
2013-10-07 11:42:00,77.0,23.0,29.99,SE,131,1.0,-999.0,13,0.00,,,-99.99,567.599976,,2013-10-07 18:42:00,
2013-10-07 11:52:00,77.0,23.0,29.99,SE,131,1.0,-999.0,13,0.00,,,-99.99,567.599976,,2013-10-07 18:52:00,
2013-10-07 12:00:00,79.0,22.0,29.98,East,86,2.0,-999.0,11,0.00,,,-99.99,675.799988,,2013-10-07 19:00:00,
2013-10-07 12:42:00,79.0,22.0,29.98,East,86,2.0,-999.0,11,0.00,,,-99.99,675.799988,,2013-10-07 19:42:00,
2013-10-07 12:52:00,79.0,22.0,29.98,East,86,2.0,-999.0,11,0.00,,,-99.99,675.799988,,2013-10-07 19:52:00,
2013-10-07 13:00:00,80.0,22.0,29.96,WNW,287,3.0,-999.0,11,0.00,,,-99.99,724.500000,,2013-10-07 20:00:00,
2013-10-07 13:43:00,80.0,22.0,29.96,WNW,287,3.0,-999.0,11,0.00,,,-99.99,724.500000,,2013-10-07 20:43:00,
2013-10-07 13:52:00,80.0,22.0,29.96,WNW,287,3.0,-999.0,11,0.00,,,-99.99,724.500000,,2013-10-07 20:52:00,
2013-10-07 14:00:00,80.0,23.0,29.94,NNE,18,3.0,-999.0,12,0.00,,,-99.99,716.099976,,2013-10-07 21:00:00,
2013-10-07 14:43:00,80.0,23.0,29.94,NNE,18,3.0,-999.0,12,0.00,,,-99.99,716.099976,,2013-10-07 21:43:00,
2013-10-07 14:55:00,80.0,23.0,29.94,NNE,18,3.0,-999.0,12,0.00,,,-99.99,716.099976,,2013-10-07 21:55:00,
2013-10-07 16:00:00,76.0,22.0,29.92,WSW,246,3.0,-999.0,13,0.00,,,-99.99,408.200012,,2013-10-07 23:00:00,
2013-10-07 16:42:00,76.0,22.0,29.92,WSW,246,3.0,-999.0,13,0.00,,,-99.99,408.200012,,2013-10-07 23:42:00,
2013-10-07 16:52:00,76.0,22.0,29.92,WSW,246,3.0,-999.0,13,0.00,,,-99.99,408.200012,,2013-10-07 23:52:00,
2013-10-07 18:00:00,71.0,28.0,29.89,SSE,167,0.0,-999.0,20,0.00,,,-99.99,77.699997,,2013-10-08 01:00:00,
2013-10-07 18:42:00,71.0,28.0,29.89,SSE,167,0.0,-999.0,20,0.00,,,-99.99,77.699997,,2013-10-08 01:42:00,
2013-10-07 18:52:00,71.0,28.0,29.89,SSE,167,0.0,-999.0,20,0.00,,,-99.99,77.699997,,2013-10-08 01:52:00,
2013-10-07 19:00:00,63.0,29.0,29.88,West,274,0.0,-999.0,27,0.00,,,-99.99,9.100000,,2013-10-08 02:00:00,
2013-10-07 19:42:00,63.0,29.0,29.88,West,274,0.0,-999.0,27,0.00,,,-99.99,9.100000,,2013-10-08 02:42:00,
2013-10-07 19:52:00,63.0,29.0,29.88,West,274,0.0,-999.0,27,0.00,,,-99.99,9.100000,,2013-10-08 02:52:00,
2013-10-07 20:00:00,60.0,29.0,29.89,West,274,0.0,-999.0,30,0.00,,,-99.99,-1.700000,,2013-10-08 03:00:00,
2013-10-07 20:44:00,60.0,29.0,29.89,West,274,0.0,-999.0,30,0.00,,,-99.99,-1.700000,,2013-10-08 03:44:00,
2013-10-07 20:55:00,60.0,29.0,29.89,West,274,0.0,-999.0,30,0.00,,,-99.99,-1.700000,,2013-10-08 03:55:00,
2013-10-07 21:00:00,56.0,29.0,29.89,NNW,336,0.0,-999.0,35,0.00,,,-99.99,-1.700000,,2013-10-08 04:00:00,
2013-10-07 21:53:00,56.0,29.0,29.89,NNW,336,0.0,-999.0,35,0.00,,,-99.99,-1.700000,,2013-10-08 04:53:00,